createdAt,value
2023-01-29T00:00:12.858Z,56.00
2023-01-29T00:05:26.972Z,56.21
2023-01-29T00:10:29.347Z,56.24
2023-01-29T00:15:30.953Z,56.44
2023-01-29T00:20:32.540Z,56.54
2023-01-29T00:25:34.133Z,56.52
2023-01-29T00:30:36.772Z,56.78
2023-01-29T00:35:40.152Z,57.16
2023-01-29T00:41:00.576Z,57.37
2023-01-29T00:46:02.193Z,57.93
2023-01-29T00:51:04.217Z,58.36
2023-01-29T00:56:06.212Z,58.52
2023-01-29T01:01:07.826Z,58.57
2023-01-29T01:06:11.037Z,58.97
2023-01-29T01:11:12.631Z,58.69
2023-01-29T01:16:17.034Z,58.77
2023-01-29T01:21:18.655Z,59.09
2023-01-29T01:26:20.230Z,59.11
2023-01-29T01:31:21.955Z,59.33
2023-01-29T01:36:23.613Z,59.56
2023-01-29T01:41:25.400Z,59.54
2023-01-29T01:46:32.069Z,59.71
2023-01-29T01:51:37.520Z,59.59
2023-01-29T01:56:44.275Z,59.89
2023-01-29T02:01:52.223Z,59.88
2023-01-29T02:07:14.318Z,59.64
2023-01-29T02:12:17.083Z,59.44
2023-01-29T02:17:20.274Z,59.37
2023-01-29T02:22:40.622Z,59.17
2023-01-29T02:27:55.453Z,59.07
2023-01-29T02:33:11.142Z,59.08
2023-01-29T02:38:33.051Z,59.62
2023-01-29T02:43:55.724Z,59.57
2023-01-29T02:49:04.857Z,59.59
2023-01-29T02:54:43.102Z,59.59
2023-01-29T02:59:54.959Z,59.48
2023-01-29T03:05:01.735Z,59.72
2023-01-29T03:10:12.040Z,59.69
2023-01-29T03:15:25.039Z,59.97
2023-01-29T03:20:32.770Z,60.22
2023-01-29T03:25:55.529Z,60.11
2023-01-29T03:31:22.019Z,60.21
2023-01-29T03:36:38.179Z,60.49
2023-01-29T03:42:01.292Z,60.89
2023-01-29T03:47:21.043Z,61.48
2023-01-29T03:52:39.183Z,61.40
2023-01-29T03:58:00.976Z,61.74
2023-01-29T04:03:17.829Z,62.19
2023-01-29T04:08:27.602Z,62.18
2023-01-29T04:13:33.788Z,62.12
2023-01-29T04:18:36.403Z,62.26
2023-01-29T04:23:38.093Z,62.14
2023-01-29T04:29:07.570Z,62.63
2023-01-29T04:34:18.147Z,62.32
2023-01-29T04:39:32.041Z,62.26
2023-01-29T04:44:54.475Z,61.92
2023-01-29T04:50:11.689Z,61.48
2023-01-29T04:55:30.036Z,61.32
2023-01-29T05:00:35.709Z,61.26
2023-01-29T05:05:41.642Z,61.49
2023-01-29T05:10:43.305Z,61.62
2023-01-29T05:15:53.158Z,61.82
2023-01-29T05:20:57.369Z,61.78
2023-01-29T05:25:59.185Z,61.51
2023-01-29T05:31:00.880Z,61.66
2023-01-29T05:36:02.593Z,61.64
2023-01-29T05:41:04.191Z,61.38
2023-01-29T05:46:05.800Z,61.11
2023-01-29T05:51:07.403Z,61.09
2023-01-29T05:56:09.029Z,61.16
2023-01-29T06:01:16.535Z,61.17
2023-01-29T06:06:18.164Z,61.10
2023-01-29T06:11:20.634Z,61.02
2023-01-29T06:16:22.270Z,61.17
2023-01-29T06:21:23.876Z,60.84
2023-01-29T06:26:25.465Z,60.93
2023-01-29T06:31:38.657Z,60.99
2023-01-29T06:36:41.893Z,61.07
2023-01-29T06:41:45.384Z,61.01
2023-01-29T06:46:46.993Z,61.37
2023-01-29T06:51:48.705Z,61.59
2023-01-29T06:56:50.388Z,61.72
2023-01-29T07:01:52.092Z,61.87
2023-01-29T07:06:53.729Z,61.67
2023-01-29T07:11:55.310Z,61.51
2023-01-29T07:16:56.887Z,61.58
2023-01-29T07:22:02.380Z,61.22
2023-01-29T07:27:03.992Z,61.08
2023-01-29T07:32:06.122Z,61.03
2023-01-29T07:37:07.948Z,60.88
2023-01-29T07:42:09.593Z,61.22
2023-01-29T07:47:12.360Z,61.13
2023-01-29T07:52:13.955Z,60.82
2023-01-29T07:57:15.528Z,60.61
2023-01-29T08:02:17.214Z,60.87
2023-01-29T08:07:18.868Z,60.84
2023-01-29T08:12:20.498Z,60.88
2023-01-29T08:17:22.095Z,61.05
2023-01-29T08:22:23.676Z,61.17
2023-01-29T08:27:25.344Z,60.58
2023-01-29T08:32:27.105Z,60.19
2023-01-29T08:37:28.687Z,60.03
2023-01-29T08:42:30.316Z,60.09
2023-01-29T08:47:31.916Z,60.12
2023-01-29T08:52:33.508Z,59.96
2023-01-29T08:57:35.248Z,59.85
2023-01-29T09:02:37.792Z,59.41
2023-01-29T09:07:39.518Z,59.55
2023-01-29T09:12:41.114Z,59.49
2023-01-29T09:17:43.256Z,59.63
2023-01-29T09:22:45.104Z,58.92
2023-01-29T09:27:46.729Z,58.22
2023-01-29T09:32:55.495Z,57.56
2023-01-29T09:37:57.711Z,57.22
2023-01-29T09:43:07.170Z,56.33
2023-01-29T09:48:13.344Z,55.74
2023-01-29T09:53:24.548Z,55.33
2023-01-29T09:58:44.233Z,54.92
2023-01-29T10:04:08.798Z,55.06
2023-01-29T10:09:16.131Z,54.93
2023-01-29T10:14:23.867Z,54.31
2023-01-29T10:19:34.437Z,53.80
2023-01-29T10:24:48.401Z,52.69
2023-01-29T10:29:54.314Z,53.26
2023-01-29T10:35:01.779Z,52.98
2023-01-29T10:40:12.751Z,51.42
2023-01-29T10:45:26.224Z,52.38
2023-01-29T10:51:01.844Z,52.09
2023-01-29T10:56:20.904Z,52.16
2023-01-29T11:01:24.244Z,52.12
2023-01-29T11:06:25.908Z,51.62
2023-01-29T11:11:59.445Z,50.16
2023-01-29T11:17:01.098Z,51.88
2023-01-29T11:22:04.428Z,52.40
2023-01-29T11:27:20.733Z,52.22
2023-01-29T11:32:22.299Z,52.95
2023-01-29T11:37:31.361Z,53.31
2023-01-29T11:42:33.856Z,52.96
2023-01-29T11:47:35.688Z,53.42
2023-01-29T11:52:40.991Z,52.88
2023-01-29T11:57:46.870Z,53.56
2023-01-29T12:03:19.416Z,53.09
2023-01-29T12:08:23.567Z,53.25
2023-01-29T12:13:28.495Z,53.02
2023-01-29T12:18:42.627Z,52.71
2023-01-29T12:23:57.886Z,52.11
2023-01-29T12:29:12.506Z,51.90
2023-01-29T12:34:46.379Z,52.37
2023-01-29T12:39:50.114Z,52.51
2023-01-29T12:44:51.633Z,53.36
2023-01-29T12:49:57.871Z,53.26
2023-01-29T12:55:06.512Z,53.27
2023-01-29T13:00:24.028Z,52.69
2023-01-29T13:05:36.753Z,52.39
2023-01-29T13:10:43.126Z,53.07
2023-01-29T13:15:45.929Z,53.10
2023-01-29T13:20:49.864Z,52.83
2023-01-29T13:25:55.186Z,52.38
2023-01-29T13:31:28.521Z,51.85
2023-01-29T13:36:31.817Z,52.70
2023-01-29T13:41:37.140Z,52.53
2023-01-29T13:46:41.608Z,52.67
2023-01-29T13:51:43.506Z,52.60
2023-01-29T13:56:59.247Z,52.63
2023-01-29T14:02:03.961Z,52.89
2023-01-29T14:07:43.575Z,52.12
2023-01-29T14:12:46.736Z,52.52
2023-01-29T14:18:14.607Z,52.08
2023-01-29T14:23:31.238Z,52.44
2023-01-29T14:28:34.911Z,52.00
2023-01-29T14:33:43.383Z,52.00
2023-01-29T14:38:51.094Z,52.33
2023-01-29T14:44:32.436Z,52.25
2023-01-29T14:49:54.775Z,52.17
2023-01-29T14:55:01.650Z,52.35
2023-01-29T15:00:07.254Z,52.60
2023-01-29T15:05:18.109Z,52.80
2023-01-29T15:10:45.640Z,52.08
2023-01-29T15:16:04.537Z,52.88
2023-01-29T15:21:13.168Z,52.13
2023-01-29T15:26:21.139Z,52.85
2023-01-29T15:31:22.969Z,53.23
2023-01-29T15:36:28.976Z,53.37
2023-01-29T15:41:30.679Z,53.48
2023-01-29T15:46:37.609Z,53.73
2023-01-29T15:51:39.695Z,53.79
2023-01-29T15:56:45.683Z,54.13
2023-01-29T16:01:47.462Z,54.32
2023-01-29T16:06:52.888Z,54.73
2023-01-29T16:11:58.772Z,55.15
2023-01-29T16:17:23.331Z,55.67
2023-01-29T16:22:29.306Z,55.93
2023-01-29T16:27:32.446Z,56.09
2023-01-29T16:32:34.177Z,56.51
2023-01-29T16:37:36.466Z,56.96
2023-01-29T16:42:38.614Z,57.09
2023-01-29T16:47:43.719Z,56.91
2023-01-29T16:53:03.007Z,57.77
2023-01-29T16:58:14.031Z,57.90
2023-01-29T17:03:17.846Z,58.05
2023-01-29T17:08:42.860Z,58.41
2023-01-29T17:13:45.933Z,58.45
2023-01-29T17:18:47.558Z,58.84
2023-01-29T17:23:49.647Z,58.77
2023-01-29T17:28:52.460Z,59.19
2023-01-29T17:33:54.048Z,59.35
2023-01-29T17:38:55.632Z,59.37
2023-01-29T17:43:57.239Z,59.60
2023-01-29T17:48:58.844Z,59.85
2023-01-29T17:54:00.420Z,59.92
2023-01-29T17:59:02.052Z,59.94
2023-01-29T18:04:03.898Z,60.00
2023-01-29T18:09:06.112Z,59.90
2023-01-29T18:14:13.995Z,59.80
2023-01-29T18:19:23.112Z,60.46
2023-01-29T18:24:26.594Z,60.09
2023-01-29T18:29:30.316Z,60.01
2023-01-29T18:34:31.979Z,60.12
2023-01-29T18:39:33.664Z,59.93
2023-01-29T18:44:35.275Z,59.74
2023-01-29T18:49:39.893Z,59.83
2023-01-29T18:54:42.605Z,60.11
2023-01-29T18:59:44.454Z,60.32
2023-01-29T19:04:46.922Z,60.36
2023-01-29T19:09:50.555Z,60.30
2023-01-29T19:14:52.281Z,60.12
2023-01-29T19:19:56.362Z,59.95
2023-01-29T19:24:58.201Z,60.09
2023-01-29T19:29:59.925Z,59.88
2023-01-29T19:35:01.576Z,59.74
2023-01-29T19:40:03.427Z,59.53
2023-01-29T19:45:05.647Z,59.35
2023-01-29T19:50:08.810Z,59.12
2023-01-29T19:55:10.586Z,58.90
2023-01-29T20:00:12.719Z,58.56
2023-01-29T20:05:17.605Z,58.46
2023-01-29T20:10:20.061Z,58.34
2023-01-29T20:15:22.847Z,58.08
2023-01-29T20:20:24.682Z,58.25
2023-01-29T20:25:33.047Z,58.02
2023-01-29T20:30:35.241Z,57.81
2023-01-29T20:35:37.409Z,57.76
2023-01-29T20:40:38.996Z,57.58
2023-01-29T20:45:40.664Z,57.74
2023-01-29T20:50:42.987Z,57.83
2023-01-29T20:55:45.569Z,58.06
2023-01-29T21:00:47.791Z,58.02
2023-01-29T21:05:50.362Z,58.17
2023-01-29T21:10:52.861Z,58.28
2023-01-29T21:15:54.476Z,58.37
2023-01-29T21:20:56.619Z,58.10
2023-01-29T21:26:05.126Z,58.06
2023-01-29T21:31:14.414Z,58.41
2023-01-29T21:36:16.092Z,58.73
2023-01-29T21:41:17.683Z,58.89
2023-01-29T21:46:19.306Z,58.93
2023-01-29T21:51:20.951Z,59.09
2023-01-29T21:56:22.564Z,58.94
2023-01-29T22:01:37.393Z,59.70
2023-01-29T22:06:40.184Z,59.70
2023-01-29T22:11:41.811Z,59.98
2023-01-29T22:16:43.430Z,60.00
2023-01-29T22:21:45.061Z,59.98
2023-01-29T22:26:48.546Z,60.06
2023-01-29T22:31:51.019Z,60.23
2023-01-29T22:36:52.794Z,60.45
2023-01-29T22:41:54.415Z,60.61
2023-01-29T22:46:56.013Z,60.53
2023-01-29T22:52:12.894Z,60.68
2023-01-29T22:57:15.216Z,60.51
2023-01-29T23:02:16.819Z,60.62
2023-01-29T23:07:18.425Z,60.65
2023-01-29T23:12:20.028Z,60.93
2023-01-29T23:17:21.642Z,60.91
2023-01-29T23:22:23.339Z,60.75
2023-01-29T23:27:24.946Z,60.67
2023-01-29T23:32:26.546Z,60.91
2023-01-29T23:37:28.160Z,60.67
2023-01-29T23:42:29.743Z,61.30
2023-01-29T23:47:31.356Z,61.50
2023-01-29T23:52:32.954Z,62.62
2023-01-29T23:57:34.555Z,62.63
